Time;durP1;ratioP1;P1;durP2;ratioP2;P2;SDS_P1;SDS_P2;PMS_P1;PMS_P2;Temp;Humidity;BMP_temperature;BMP_pressure;BME280_temperature;BME280_humidity;BME280_pressure;Samples;Min_cycle;Max_cycle;Signal;HPM_P1;HPM_P2
2022/03/18 00:02:22;;;;;;;43.65;13.90;;;6.00;99.90;;;;;;5091308;28;20027;-79
2022/03/18 00:04:49;;;;;;;39.03;14.07;;;6.00;99.90;;;;;;5092058;28;20411;-79
2022/03/18 00:07:16;;;;;;;41.10;16.02;;;6.00;99.90;;;;;;5073027;28;20504;-80
2022/03/18 00:09:42;;;;;;;42.03;15.85;;;6.00;99.90;;;;;;5072721;28;20048;-79
2022/03/18 00:12:09;;;;;;;44.63;15.30;;;6.00;99.90;;;;;;5072994;28;20022;-80
2022/03/18 00:14:35;;;;;;;45.88;13.90;;;6.00;99.90;;;;;;5072876;28;20031;-79
2022/03/18 00:17:00;;;;;;;32.85;14.65;;;6.00;99.90;;;;;;5091890;28;20021;-79
2022/03/18 00:19:27;;;;;;;50.80;16.80;;;6.00;99.90;;;;;;5072872;28;20456;-80
2022/03/18 00:22:00;;;;;;;45.67;15.60;;;5.90;99.90;;;;;;5091166;28;20078;-79
2022/03/18 00:24:26;;;;;;;45.00;14.02;;;6.00;99.90;;;;;;5072543;28;20028;-80
2022/03/18 00:26:52;;;;;;;46.95;16.92;;;6.00;99.90;;;;;;5072699;28;20383;-79
2022/03/18 00:29:17;;;;;;;37.40;14.93;;;5.90;99.90;;;;;;5072470;28;20032;-79
2022/03/18 00:31:44;;;;;;;44.50;13.70;;;5.90;99.90;;;;;;5072384;28;20024;-79
2022/03/18 00:34:10;;;;;;;44.20;16.20;;;5.90;99.90;;;;;;5091159;28;20452;-79
2022/03/18 00:36:36;;;;;;;49.75;17.95;;;5.90;99.90;;;;;;5072376;28;20562;-80
2022/03/18 00:39:03;;;;;;;46.53;16.00;;;5.90;99.90;;;;;;5072642;28;20028;-80
2022/03/18 00:41:29;;;;;;;50.30;18.23;;;5.90;99.90;;;;;;5072333;28;20027;-79
2022/03/18 00:43:55;;;;;;;37.45;12.77;;;5.80;99.90;;;;;;5072334;28;20055;-79
2022/03/18 00:46:22;;;;;;;45.08;15.38;;;5.90;99.90;;;;;;5072385;28;20476;-79
2022/03/18 00:54:21;;;;;;;41.67;14.27;;;5.80;99.90;;;;;;5091878;28;20038;-79
2022/03/18 00:56:46;;;;;;;40.42;14.23;;;5.90;99.90;;;;;;5073093;28;20027;-79
2022/03/18 00:59:12;;;;;;;49.70;15.10;;;5.80;99.90;;;;;;5073529;28;20108;-80
2022/03/18 01:01:39;;;;;;;48.38;16.02;;;5.80;99.90;;;;;;5075063;28;20024;-80
2022/03/18 01:04:04;;;;;;;45.13;15.50;;;5.80;99.90;;;;;;5073584;28;20388;-80
2022/03/18 01:06:31;;;;;;;41.97;14.98;;;5.90;99.90;;;;;;5073789;28;20024;-80
2022/03/18 01:08:57;;;;;;;49.83;17.70;;;5.80;99.90;;;;;;5074673;28;20052;-79
2022/03/18 01:11:23;;;;;;;55.72;19.73;;;5.80;99.90;;;;;;5075162;28;20032;-80
2022/03/18 01:13:49;;;;;;;53.42;17.80;;;5.80;99.90;;;;;;5073298;28;20024;-79
2022/03/18 01:16:15;;;;;;;58.95;21.27;;;5.80;99.90;;;;;;5072317;28;20501;-79
2022/03/18 01:18:41;;;;;;;51.92;17.33;;;5.80;99.90;;;;;;5091017;28;20594;-79
2022/03/18 01:21:07;;;;;;;48.63;17.75;;;5.80;99.90;;;;;;5072603;28;20324;-79
2022/03/18 01:23:32;;;;;;;56.55;19.33;;;5.80;99.90;;;;;;5072614;28;20055;-79
2022/03/18 01:25:58;;;;;;;60.80;19.77;;;5.80;99.90;;;;;;5073031;28;20028;-79
2022/03/18 01:28:26;;;;;;;76.28;26.13;;;5.70;99.90;;;;;;5072316;28;20031;-79
2022/03/18 01:30:52;;;;;;;61.53;19.92;;;5.70;99.90;;;;;;5072100;28;20038;-79
2022/03/18 01:33:17;;;;;;;69.40;21.45;;;5.80;99.90;;;;;;5090935;28;20192;-78
2022/03/18 01:35:43;;;;;;;57.72;20.45;;;5.70;99.90;;;;;;5072071;28;20032;-78
2022/03/18 01:38:09;;;;;;;55.20;19.85;;;5.80;99.90;;;;;;5090442;28;20032;-79
2022/03/18 01:40:35;;;;;;;61.67;22.35;;;5.80;99.90;;;;;;5073576;28;20023;-79
2022/03/18 01:43:01;;;;;;;59.10;21.02;;;5.70;99.90;;;;;;5091280;28;20039;-80
2022/03/18 01:45:26;;;;;;;59.78;21.67;;;5.70;99.90;;;;;;5073064;28;20211;-80
2022/03/18 01:47:53;;;;;;;65.18;21.83;;;6.30;99.90;;;;;;5074626;28;20031;-79
2022/03/18 01:50:18;;;;;;;65.85;23.77;;;5.70;99.90;;;;;;5073043;28;20036;-78
2022/03/18 01:52:45;;;;;;;62.10;21.10;;;5.70;99.90;;;;;;5072734;28;20026;-80
2022/03/18 01:55:12;;;;;;;66.35;23.30;;;5.70;99.90;;;;;;5090698;28;20023;-79
2022/03/18 01:57:38;;;;;;;57.38;20.90;;;5.70;99.90;;;;;;5072383;28;20463;-79
2022/03/18 02:00:06;;;;;;;62.35;19.15;;;5.70;99.90;;;;;;5090996;28;20113;-80
2022/03/18 02:02:32;;;;;;;63.08;19.65;;;5.70;99.90;;;;;;5072145;28;20023;-80
2022/03/18 02:04:58;;;;;;;60.72;20.92;;;5.70;99.90;;;;;;5071659;28;20415;-79
2022/03/18 02:07:24;;;;;;;63.05;21.63;;;5.70;99.90;;;;;;5090144;28;20024;-79
2022/03/18 02:09:50;;;;;;;66.00;19.67;;;5.70;99.90;;;;;;5071309;28;20098;-79
2022/03/18 02:12:16;;;;;;;63.40;20.13;;;5.70;99.90;;;;;;5071759;28;20028;-79
2022/03/18 02:14:45;;;;;;;54.80;17.60;;;5.70;99.90;;;;;;5072464;28;20024;-80
2022/03/18 02:17:12;;;;;;;;;;;5.70;99.90;;;;;;5074451;28;20398;-79
2022/03/18 02:19:40;;;;;;;63.05;20.90;;;5.60;99.90;;;;;;5075502;28;19904;-80
2022/03/18 02:22:11;;;;;;;57.13;18.00;;;5.60;99.90;;;;;;5075650;28;20029;-80
2022/03/18 02:24:45;;;;;;;64.13;19.17;;;5.60;99.90;;;;;;5093588;28;20222;-79
2022/03/18 02:27:11;;;;;;;76.20;22.38;;;5.60;99.90;;;;;;5075317;28;20365;-79
2022/03/18 02:29:38;;;;;;;63.88;20.58;;;5.60;99.90;;;;;;5075114;28;20056;-79
2022/03/18 02:32:05;;;;;;;66.65;21.00;;;5.60;99.90;;;;;;5075376;28;20051;-80
2022/03/18 02:34:32;;;;;;;68.57;22.30;;;5.60;99.90;;;;;;5075008;28;20383;-79
2022/03/18 02:36:58;;;;;;;66.50;21.67;;;5.60;99.90;;;;;;5093935;28;20543;-79
2022/03/18 02:39:24;;;;;;;74.75;22.35;;;5.60;99.90;;;;;;5075212;28;20045;-79
2022/03/18 02:41:50;;;;;;;72.55;22.40;;;5.60;99.90;;;;;;5092908;28;20440;-79
2022/03/18 02:44:16;;;;;;;75.25;21.75;;;5.60;99.90;;;;;;5074638;28;20028;-79
2022/03/18 02:46:42;;;;;;;68.35;21.27;;;5.60;99.90;;;;;;5074633;28;20476;-79
2022/03/18 02:49:08;;;;;;;66.88;22.80;;;5.60;99.90;;;;;;5074121;28;20049;-79
2022/03/18 02:51:37;;;;;;;55.80;18.52;;;5.60;99.90;;;;;;5092354;28;20099;-79
2022/03/18 02:54:04;;;;;;;74.80;21.17;;;5.60;99.90;;;;;;5074270;28;20043;-79
2022/03/18 02:56:31;;;;;;;67.38;22.63;;;5.60;99.90;;;;;;5074436;28;20028;-79
2022/03/18 02:58:57;;;;;;;66.80;20.65;;;5.60;99.90;;;;;;5074327;28;20043;-79
2022/03/18 03:01:23;;;;;;;66.53;21.42;;;5.60;99.90;;;;;;5073927;28;20085;-80
2022/03/18 03:03:48;;;;;;;70.00;23.42;;;5.60;99.90;;;;;;5092517;28;20016;-79
2022/03/18 03:08:58;;;;;;;64.30;21.15;;;5.60;99.90;;;;;;5092135;28;20051;-79
2022/03/18 03:11:24;;;;;;;67.95;21.98;;;5.60;99.90;;;;;;5073793;28;20392;-78
2022/03/18 03:13:51;;;;;;;68.97;24.60;;;5.60;99.90;;;;;;5092361;28;20028;-79
2022/03/18 03:16:19;;;;;;;65.50;21.13;;;5.60;99.90;;;;;;5092154;28;20095;-79
2022/03/18 03:18:46;;;;;;;62.55;20.73;;;5.50;99.90;;;;;;5073860;28;20028;-79
2022/03/18 03:21:12;;;;;;;75.13;21.98;;;5.50;99.90;;;;;;5073135;28;20031;-79
2022/03/18 03:23:38;;;;;;;71.13;22.30;;;5.60;99.90;;;;;;5073585;28;20046;-79
2022/03/18 03:26:04;;;;;;;73.47;22.83;;;5.60;99.90;;;;;;5073216;28;20460;-78
2022/03/18 03:28:29;;;;;;;75.60;22.90;;;5.60;99.90;;;;;;5073555;28;20494;-79
2022/03/18 03:30:55;;;;;;;69.38;22.45;;;5.60;99.90;;;;;;5066247;28;20391;-79
2022/03/18 03:33:21;;;;;;;60.70;22.95;;;5.50;99.90;;;;;;5073773;28;20280;-79
2022/03/18 03:35:47;;;;;;;75.88;21.80;;;5.50;99.90;;;;;;5073236;28;20031;-79
2022/03/18 03:38:14;;;;;;;63.42;20.58;;;5.50;99.90;;;;;;5091168;28;20455;-78
2022/03/18 03:40:41;;;;;;;64.28;19.85;;;5.50;99.90;;;;;;5073093;28;20384;-79
2022/03/18 03:43:08;;;;;;;59.28;19.95;;;5.50;99.90;;;;;;5072939;28;20061;-79
2022/03/18 03:45:36;;;;;;;61.28;20.15;;;5.50;99.90;;;;;;5060500;28;20032;-79
2022/03/18 03:48:02;;;;;;;57.45;21.38;;;5.40;99.90;;;;;;5052434;28;20024;-79
2022/03/18 03:50:28;;;;;;;62.75;20.60;;;5.50;99.90;;;;;;5052433;28;20040;-79
2022/03/18 03:52:54;;;;;;;62.10;20.35;;;5.50;99.90;;;;;;5070231;28;20028;-79
2022/03/18 03:55:19;;;;;;;50.92;18.85;;;5.40;99.90;;;;;;5052588;28;20460;-79
2022/03/18 03:57:45;;;;;;;63.80;19.42;;;5.40;99.90;;;;;;5052743;28;20027;-77
2022/03/18 04:00:12;;;;;;;49.72;17.58;;;5.40;99.90;;;;;;5052849;28;20024;-78
2022/03/18 04:02:38;;;;;;;53.80;19.25;;;5.40;99.90;;;;;;5052616;28;20028;-79
2022/03/18 04:05:08;;;;;;;52.28;19.67;;;5.40;99.90;;;;;;5052363;28;20027;-79
2022/03/18 04:07:37;;;;;;;;;;;5.40;99.90;;;;;;5052754;28;20071;-79
2022/03/18 04:10:04;;;;;;;54.28;19.10;;;5.40;99.90;;;;;;5070226;28;19920;-79
2022/03/18 04:12:32;;;;;;;54.88;20.00;;;5.40;99.90;;;;;;5061944;28;20031;-79
2022/03/18 04:15:05;;;;;;;54.25;19.15;;;5.30;99.90;;;;;;5092494;28;20841;-79
2022/03/18 04:18:00;;;;;;;55.90;20.08;;;5.40;99.90;;;;;;5092604;28;20122;-79
2022/03/18 04:20:27;;;;;;;50.60;17.58;;;5.40;99.90;;;;;;5070998;28;20470;-78
2022/03/18 04:22:53;;;;;;;53.17;17.88;;;5.30;99.90;;;;;;5092054;28;20027;-79
2022/03/18 04:25:22;;;;;;;54.95;19.33;;;5.30;99.90;;;;;;5092577;28;20028;-79
2022/03/18 04:27:48;;;;;;;47.15;17.58;;;5.30;99.90;;;;;;5111111;28;20278;-80
2022/03/18 04:30:14;;;;;;;51.95;19.52;;;5.30;99.90;;;;;;5092875;28;20289;-79
2022/03/18 04:32:40;;;;;;;43.08;19.58;;;5.30;99.90;;;;;;5110874;28;20387;-80
2022/03/18 04:35:07;;;;;;;48.53;17.48;;;5.30;99.90;;;;;;5092456;28;20019;-79
2022/03/18 04:37:33;;;;;;;46.60;18.40;;;5.30;99.90;;;;;;5092646;28;20140;-79
2022/03/18 04:39:58;;;;;;;42.97;16.42;;;6.70;99.90;;;;;;5091952;28;20023;-79
2022/03/18 04:42:24;;;;;;;43.38;17.42;;;5.20;99.90;;;;;;5110636;28;20105;-79
2022/03/18 04:44:50;;;;;;;39.30;16.83;;;5.30;99.90;;;;;;5110677;28;20023;-78
2022/03/18 04:47:16;;;;;;;50.58;17.67;;;5.30;99.90;;;;;;5110228;28;20152;-79
2022/03/18 04:49:41;;;;;;;50.65;17.30;;;5.30;99.90;;;;;;5111019;28;20365;-79
2022/03/18 04:52:07;;;;;;;42.88;18.58;;;5.20;99.90;;;;;;5092577;28;20100;-79
2022/03/18 04:54:33;;;;;;;44.00;16.70;;;5.20;99.90;;;;;;5092571;28;20032;-79
2022/03/18 04:57:18;;;;;;;43.58;17.30;;;4.90;99.90;;;;;;5092217;28;20436;-78
2022/03/18 04:59:48;;;;;;;47.00;18.08;;;5.30;99.90;;;;;;5091942;28;20031;-79
2022/03/18 05:02:14;;;;;;;;;;;5.20;99.90;;;;;;5092704;28;20050;-79
2022/03/18 05:04:41;;;;;;;44.38;15.93;;;5.20;99.90;;;;;;5110387;28;19949;-79
2022/03/18 05:07:07;;;;;;;51.90;19.30;;;5.20;99.90;;;;;;5091707;28;20035;-79
2022/03/18 05:09:33;;;;;;;42.30;18.70;;;5.20;99.90;;;;;;5109902;28;20047;-79
2022/03/18 05:11:59;;;;;;;47.45;18.25;;;5.20;99.90;;;;;;5091436;28;20023;-78
2022/03/18 05:14:25;;;;;;;49.58;19.13;;;5.20;99.90;;;;;;5091814;28;20016;-79
2022/03/18 05:16:52;;;;;;;54.45;19.70;;;5.20;99.90;;;;;;5091432;28;20066;-78
2022/03/18 05:19:18;;;;;;;50.72;18.88;;;5.10;99.90;;;;;;5091526;28;20035;-79
2022/03/18 05:21:43;;;;;;;39.55;16.08;;;5.10;99.90;;;;;;5110239;28;20020;-78
2022/03/18 05:24:10;;;;;;;47.83;19.17;;;5.10;99.90;;;;;;5110184;28;20024;-79
2022/03/18 05:26:37;;;;;;;45.97;19.50;;;5.10;99.90;;;;;;5091754;28;20046;-79
2022/03/18 05:29:03;;;;;;;49.00;19.25;;;5.20;99.90;;;;;;5109907;28;20024;-79
2022/03/18 05:31:31;;;;;;;45.28;16.88;;;5.10;99.90;;;;;;5091290;28;20024;-78
2022/03/18 05:33:57;;;;;;;44.30;17.70;;;5.10;99.90;;;;;;5091463;28;20020;-79
2022/03/18 05:36:23;;;;;;;42.80;17.92;;;5.10;99.90;;;;;;5090994;28;20110;-79
2022/03/18 05:38:48;;;;;;;46.33;18.95;;;5.10;99.90;;;;;;5091526;28;20035;-79
2022/03/18 05:41:14;;;;;;;40.83;17.17;;;5.10;99.90;;;;;;5109577;28;20030;-79
2022/03/18 05:43:40;;;;;;;44.38;17.08;;;5.10;99.90;;;;;;5109755;28;20028;-79
2022/03/18 05:46:07;;;;;;;42.17;15.98;;;5.10;99.90;;;;;;5109984;28;20031;-79
2022/03/18 05:48:33;;;;;;;45.50;19.25;;;5.00;99.90;;;;;;5092516;28;20422;-79
2022/03/18 05:51:00;;;;;;;45.67;18.10;;;5.00;99.90;;;;;;5109723;28;20091;-79
2022/03/18 05:53:26;;;;;;;45.47;18.52;;;5.10;99.90;;;;;;5095036;28;20081;-79
2022/03/18 05:58:36;;;;;;;56.55;18.55;;;5.00;99.90;;;;;;5114333;28;20092;-79
2022/03/18 06:01:03;;;;;;;41.90;17.13;;;5.00;99.90;;;;;;5113551;28;20032;-79
2022/03/18 06:03:29;;;;;;;53.08;17.90;;;5.00;99.90;;;;;;5095222;28;20027;-79
2022/03/18 06:05:54;;;;;;;48.85;17.95;;;5.00;99.90;;;;;;5094716;28;20397;-78
2022/03/18 06:13:50;;;;;;;43.95;17.42;;;5.00;99.90;;;;;;5113343;28;20103;-79
2022/03/18 06:16:15;;;;;;;46.05;18.80;;;5.00;99.90;;;;;;5113204;28;20442;-77
2022/03/18 06:18:41;;;;;;;51.30;18.92;;;5.00;99.90;;;;;;5097782;28;20027;-77
2022/03/18 06:21:08;;;;;;;51.42;22.45;;;5.00;99.90;;;;;;5121996;28;20019;-77
2022/03/18 06:23:37;;;;;;;45.40;19.67;;;4.90;99.90;;;;;;5105386;28;20020;-77
2022/03/18 06:26:03;;;;;;;51.08;17.27;;;5.00;99.90;;;;;;5104889;28;20416;-77
2022/03/18 06:28:28;;;;;;;42.15;19.48;;;5.00;99.90;;;;;;5122263;28;20024;-78
2022/03/18 06:30:54;;;;;;;50.70;19.48;;;5.00;99.90;;;;;;5104064;28;20031;-77
2022/03/18 06:33:20;;;;;;;55.38;21.05;;;5.00;99.90;;;;;;5104666;28;20030;-77
2022/03/18 06:35:45;;;;;;;47.08;18.10;;;5.00;99.90;;;;;;5104842;28;20019;-77
2022/03/18 06:38:11;;;;;;;52.20;18.80;;;5.00;99.90;;;;;;5121452;28;20341;-77
2022/03/18 06:40:37;;;;;;;53.20;19.52;;;5.00;99.90;;;;;;5118643;28;20038;-77
2022/03/18 06:43:03;;;;;;;47.90;18.00;;;5.00;99.90;;;;;;5115351;28;20130;-77
2022/03/18 06:45:28;;;;;;;58.85;27.50;;;5.00;99.90;;;;;;5120505;28;20050;-76
2022/03/18 06:47:54;;;;;;;43.33;18.50;;;5.00;99.90;;;;;;5102602;28;20140;-77
2022/03/18 06:50:22;;;;;;;50.40;18.52;;;5.00;99.90;;;;;;5102578;28;20035;-77
2022/03/18 06:52:48;;;;;;;44.00;19.92;;;5.00;99.90;;;;;;5102930;28;20373;-78
2022/03/18 06:55:13;;;;;;;44.85;17.95;;;5.00;99.90;;;;;;5102906;28;20047;-77
2022/03/18 06:57:39;;;;;;;48.53;19.77;;;5.00;99.90;;;;;;5102719;28;20231;-77
2022/03/18 07:00:05;;;;;;;42.83;18.23;;;5.00;99.90;;;;;;5103112;28;20080;-77
2022/03/18 07:02:31;;;;;;;62.88;28.38;;;5.00;99.90;;;;;;5101671;28;20064;-77
2022/03/18 07:04:57;;;;;;;39.90;17.20;;;4.90;99.90;;;;;;5122368;28;20433;-77
2022/03/18 07:07:22;;;;;;;49.35;21.50;;;5.00;99.90;;;;;;5103152;28;20035;-77
2022/03/18 07:09:48;;;;;;;53.50;22.17;;;4.90;99.90;;;;;;5121539;28;20122;-77
2022/03/18 07:12:13;;;;;;;55.45;23.25;;;4.90;99.90;;;;;;5082731;28;20036;-79
2022/03/18 07:14:53;;;;;;;52.40;21.02;;;4.90;99.90;;;;;;5096075;28;20022;-77
2022/03/18 07:20:04;;;;;;;51.75;20.85;;;5.00;99.90;;;;;;5121807;28;20071;-80
2022/03/18 07:22:29;;;;;;;52.95;21.35;;;5.00;99.90;;;;;;5106061;28;20038;-79
2022/03/18 07:24:55;;;;;;;51.10;22.27;;;5.00;99.90;;;;;;5115624;28;20229;-81
2022/03/18 07:27:21;;;;;;;48.13;17.80;;;5.00;99.90;;;;;;5116822;28;20054;-79
2022/03/18 07:30:17;;;;;;;51.28;21.15;;;5.10;99.90;;;;;;5113255;28;20115;-81
2022/03/18 07:33:06;;;;;;;56.30;21.63;;;5.10;99.90;;;;;;5114477;28;20087;-82
2022/03/18 07:35:38;;;;;;;47.67;19.15;;;5.10;99.90;;;;;;5129636;22;20065;-78
2022/03/18 07:38:09;;;;;;;47.78;19.35;;;5.20;99.90;;;;;;5058513;28;20109;-79
2022/03/18 07:40:38;;;;;;;53.55;20.20;;;5.20;99.90;;;;;;5058704;28;20090;-78
2022/03/18 07:43:08;;;;;;;;;;;5.20;99.90;;;;;;5065690;28;20055;-83
2022/03/18 07:45:37;;;;;;;52.03;19.27;;;5.20;99.90;;;;;;5062485;28;19905;-81
2022/03/18 07:48:07;;;;;;;54.88;21.85;;;5.20;99.90;;;;;;5057757;28;20049;-79
2022/03/18 07:50:36;;;;;;;48.75;18.50;;;5.20;99.90;;;;;;5069964;28;20052;-79
2022/03/18 07:53:05;;;;;;;39.58;18.55;;;5.30;99.90;;;;;;5070224;28;20033;-78
2022/03/18 07:55:51;;;;;;;50.20;17.80;;;5.30;99.90;;;;;;5069075;28;20032;-80
2022/03/18 07:58:17;;;;;;;40.22;17.52;;;5.30;99.90;;;;;;5070279;28;20051;-79
2022/03/18 08:00:44;;;;;;;38.75;17.75;;;5.40;99.90;;;;;;5069764;28;20097;-79
2022/03/18 08:03:11;;;;;;;32.63;14.50;;;5.40;99.90;;;;;;5057526;28;20032;-80
2022/03/18 08:06:02;;;;;;;39.30;16.85;;;5.50;99.90;;;;;;5068063;28;20016;-78
2022/03/18 08:08:29;;;;;;;37.90;15.65;;;5.40;99.90;;;;;;5069701;28;20048;-79
2022/03/18 08:10:59;;;;;;;39.58;16.65;;;5.50;99.90;;;;;;5070457;28;20032;-80
2022/03/18 08:13:25;;;;;;;32.85;17.67;;;5.50;99.90;;;;;;5072335;28;20005;-80
2022/03/18 08:15:51;;;;;;;58.58;23.15;;;5.70;99.90;;;;;;5071053;28;20013;-80
2022/03/18 08:18:50;;;;;;;34.80;16.25;;;5.70;99.90;;;;;;5074949;28;20025;-78
2022/03/18 08:21:17;;;;;;;40.90;17.92;;;5.70;99.90;;;;;;5073029;28;20055;-80
2022/03/18 08:23:51;;;;;;;50.65;19.05;;;5.70;99.90;;;;;;5075177;28;20017;-79
2022/03/18 08:26:17;;;;;;;37.17;18.17;;;5.80;99.90;;;;;;5075565;28;20123;-78
2022/03/18 08:28:43;;;;;;;35.97;15.10;;;5.90;99.90;;;;;;5073352;28;20024;-80
2022/03/18 08:31:08;;;;;;;32.53;14.43;;;5.90;99.90;;;;;;5061785;28;20056;-78
2022/03/18 08:33:36;;;;;;;36.42;15.48;;;5.90;99.90;;;;;;5063949;28;20005;-78
2022/03/18 08:36:09;;;;;;;30.92;15.07;;;6.00;99.90;;;;;;5061433;28;20033;-78
2022/03/18 08:38:35;;;;;;;42.83;18.92;;;6.00;99.90;;;;;;5066101;28;20032;-80
2022/03/18 08:41:01;;;;;;;34.05;16.00;;;6.10;99.90;;;;;;5068690;28;20131;-81
2022/03/18 08:43:55;;;;;;;40.08;15.55;;;6.20;99.90;;;;;;5071005;28;20028;-79
2022/03/18 08:46:44;;;;;;;33.88;16.02;;;6.20;99.90;;;;;;5071193;28;20036;-77
2022/03/18 08:49:14;;;;;;;34.85;13.50;;;6.30;99.90;;;;;;5063307;28;20067;-81
2022/03/18 08:51:40;;;;;;;32.20;14.13;;;6.20;99.90;;;;;;5054613;28;20021;-79
2022/03/18 08:54:06;;;;;;;32.25;16.00;;;6.20;99.90;;;;;;5050815;28;20063;-79
2022/03/18 08:57:03;;;;;;;30.65;14.80;;;6.20;99.90;;;;;;5070682;28;20005;-78
2022/03/18 08:59:32;;;;;;;29.58;12.77;;;6.20;99.90;;;;;;5074234;28;20025;-79
2022/03/18 09:01:58;;;;;;;25.73;11.90;;;6.30;99.90;;;;;;5068974;28;20009;-79
2022/03/18 09:04:24;;;;;;;20.27;11.73;;;6.20;99.90;;;;;;5063754;28;20032;-80
2022/03/18 09:06:49;;;;;;;32.70;13.35;;;6.20;99.90;;;;;;5067334;28;20017;-79
2022/03/18 09:09:25;;;;;;;28.35;12.63;;;6.30;99.90;;;;;;5065755;28;20101;-77
2022/03/18 09:11:51;;;;;;;30.95;12.30;;;6.40;99.90;;;;;;5066918;28;20414;-81
2022/03/18 09:14:17;;;;;;;27.80;13.10;;;6.50;99.90;;;;;;5066349;28;20032;-78
2022/03/18 09:16:43;;;;;;;29.42;12.68;;;6.40;99.90;;;;;;5074382;28;20009;-79
2022/03/18 09:19:08;;;;;;;23.15;10.50;;;6.20;99.90;;;;;;5058251;28;20090;-80
2022/03/18 09:21:35;;;;;;;31.55;12.60;;;6.30;99.90;;;;;;5057933;28;20025;-79
2022/03/18 09:24:12;;;;;;;28.17;12.45;;;6.40;99.90;;;;;;5066181;28;20068;-79
2022/03/18 09:26:38;;;;;;;26.38;12.63;;;6.40;99.90;;;;;;5077512;28;20032;-77
2022/03/18 09:29:04;;;;;;;28.17;12.68;;;6.30;99.90;;;;;;5076811;28;20036;-80
2022/03/18 09:31:29;;;;;;;19.55;10.50;;;6.30;99.90;;;;;;5063344;28;20033;-80
2022/03/18 09:33:55;;;;;;;22.88;10.70;;;6.40;99.90;;;;;;5055229;28;20028;-80
2022/03/18 09:36:21;;;;;;;24.73;11.27;;;6.40;99.90;;;;;;5064039;28;20044;-79
2022/03/18 09:39:27;;;;;;;24.85;11.52;;;6.50;99.90;;;;;;5077194;28;20037;-79
2022/03/18 09:42:14;;;;;;;20.27;9.80;;;6.50;99.90;;;;;;5078660;28;20029;-79
2022/03/18 09:44:48;;;;;;;18.88;9.38;;;6.50;99.90;;;;;;5383303;22;20046;-78
2022/03/18 09:47:37;;;;;;;25.30;10.43;;;6.40;99.90;;;;;;5040438;28;20018;-77
2022/03/18 09:50:18;;;;;;;25.13;10.35;;;6.60;99.90;;;;;;5040492;28;20018;-77
2022/03/18 09:52:47;;;;;;;19.23;10.15;;;6.80;99.90;;;;;;5023704;28;20010;-77
2022/03/18 09:55:13;;;;;;;22.35;10.07;;;6.80;99.90;;;;;;5019292;28;20014;-81
2022/03/18 09:57:46;;;;;;;25.15;11.35;;;7.00;99.90;;;;;;5040574;28;20002;-75
2022/03/18 10:00:12;;;;;;;22.58;10.75;;;7.10;99.90;;;;;;4996408;28;20342;-79
2022/03/18 10:02:38;;;;;;;25.30;11.05;;;7.20;99.90;;;;;;5010326;28;20030;-79
2022/03/18 10:05:10;;;;;;;20.90;9.90;;;7.30;99.90;;;;;;4991981;28;20042;-80
2022/03/18 10:07:36;;;;;;;22.58;9.88;;;7.30;99.90;;;;;;4992087;28;20022;-79
2022/03/18 10:10:02;;;;;;;21.92;9.38;;;7.60;99.90;;;;;;4991980;28;20044;-79
2022/03/18 10:12:33;;;;;;;18.23;11.23;;;7.90;99.90;;;;;;5009628;28;20030;-79
2022/03/18 10:15:19;;;;;;;22.35;11.10;;;7.70;99.90;;;;;;4995923;28;20124;-80
2022/03/18 10:17:50;;;;;;;22.00;9.30;;;7.80;99.90;;;;;;5011731;28;20100;-79
2022/03/18 10:20:32;;;;;;;19.90;8.57;;;8.00;99.90;;;;;;4999814;28;20034;-79
2022/03/18 10:23:04;;;;;;;16.65;9.25;;;8.10;99.90;;;;;;5012188;28;20025;-80
2022/03/18 10:25:50;;;;;;;21.08;10.15;;;8.00;99.90;;;;;;5008352;28;20049;-79
2022/03/18 10:28:46;;;;;;;20.63;9.40;;;8.00;99.90;;;;;;4991481;28;20029;-80
2022/03/18 10:31:15;;;;;;;21.75;10.10;;;8.10;99.90;;;;;;5009846;28;20120;-80
2022/03/18 10:39:30;;;;;;;16.60;9.18;;;8.40;99.90;;;;;;5007847;28;20041;-79
2022/03/18 10:42:02;;;;;;;27.45;11.43;;;8.40;99.90;;;;;;5007561;28;20053;-79
2022/03/18 10:44:55;;;;;;;24.67;11.20;;;8.50;99.90;;;;;;4990474;28;20417;-79
2022/03/18 10:47:42;;;;;;;24.52;11.75;;;8.40;99.90;;;;;;4982548;28;20064;-79
2022/03/18 10:50:16;;;;;;;24.15;11.77;;;8.60;99.90;;;;;;5007149;28;20042;-79
2022/03/18 10:53:01;;;;;;;20.50;9.88;;;8.80;99.90;;;;;;4989542;28;20525;-79
2022/03/18 10:55:41;;;;;;;22.48;10.52;;;8.70;99.90;;;;;;5007178;28;20152;-79
2022/03/18 10:58:13;;;;;;;26.38;11.60;;;9.10;99.90;;;;;;4990172;28;20393;-79
2022/03/18 11:00:41;;;;;;;28.00;11.40;;;9.20;99.90;;;;;;5008230;28;20140;-79
2022/03/18 11:03:07;;;;;;;23.52;10.90;;;9.40;99.90;;;;;;5008847;28;20247;-79
2022/03/18 11:06:17;;;;;;;25.38;13.27;;;9.30;99.90;;;;;;5022099;28;20022;-80
2022/03/18 11:08:59;;;;;;;37.60;13.60;;;9.10;99.90;;;;;;5010333;28;20034;-80
2022/03/18 11:11:27;;;;;;;27.55;11.70;;;9.30;99.90;;;;;;5008875;28;20026;-80
2022/03/18 11:14:06;;;;;;;39.13;12.88;;;9.30;99.90;;;;;;4991198;28;20025;-80
2022/03/18 11:16:38;;;;;;;30.92;11.93;;;9.40;99.90;;;;;;4990638;28;20026;-80
2022/03/18 11:19:08;;;;;;;28.33;11.77;;;9.80;99.90;;;;;;4990698;28;20029;-79
2022/03/18 11:21:41;;;;;;;26.60;12.80;;;9.80;99.90;;;;;;5008719;28;20084;-79
2022/03/18 11:24:20;;;;;;;25.08;10.23;;;9.70;99.90;;;;;;4991333;28;20134;-79
2022/03/18 11:26:48;;;;;;;26.95;12.55;;;9.90;99.90;;;;;;5001279;28;20497;-82
2022/03/18 11:29:24;;;;;;;29.77;13.25;;;10.00;99.90;;;;;;4996389;28;20052;-79
2022/03/18 11:32:15;;;;;;;28.95;13.07;;;9.80;99.90;;;;;;5001885;28;20065;-78
2022/03/18 11:34:47;;;;;;;29.80;12.77;;;9.60;99.90;;;;;;4985050;28;20026;-79
2022/03/18 11:37:13;;;;;;;26.55;12.20;;;9.50;99.90;;;;;;5007185;28;20050;-80
2022/03/18 11:39:38;;;;;;;22.90;12.45;;;9.60;99.90;;;;;;4993568;28;20029;-79
2022/03/18 11:42:09;;;;;;;28.67;12.60;;;9.60;99.90;;;;;;5015930;28;20006;-78
2022/03/18 11:45:04;;;;;;;31.60;12.07;;;9.70;99.90;;;;;;4987869;28;20030;-78
2022/03/18 11:47:30;;;;;;;14.93;8.23;;;9.90;99.90;;;;;;4982776;28;20130;-77
2022/03/18 11:49:56;;;;;;;30.65;14.05;;;10.10;99.90;;;;;;4972567;28;20205;-78
2022/03/18 11:52:22;;;;;;;26.05;12.70;;;9.90;99.90;;;;;;4993924;28;20022;-79
2022/03/18 11:55:09;;;;;;;27.88;12.73;;;9.90;99.90;;;;;;4982503;28;20030;-80
2022/03/18 11:57:42;;;;;;;30.55;14.20;;;10.10;99.90;;;;;;4983746;28;20166;-78
2022/03/18 12:00:29;;;;;;;28.70;13.60;;;10.20;99.90;;;;;;4973769;28;20330;-79
2022/03/18 12:02:55;;;;;;;29.27;13.82;;;10.20;99.90;;;;;;4987320;28;20501;-79
2022/03/18 12:05:21;;;;;;;26.52;12.18;;;10.30;99.90;;;;;;4969736;28;20038;-79
2022/03/18 12:07:49;;;;;;;31.10;13.50;;;10.40;99.90;;;;;;4994906;28;20493;-79
2022/03/18 12:10:40;;;;;;;29.25;14.43;;;10.60;99.90;;;;;;4989476;28;20038;-79
2022/03/18 12:13:06;;;;;;;27.38;12.98;;;10.70;99.90;;;;;;4989610;28;20026;-79
2022/03/18 12:15:40;;;;;;;30.10;14.25;;;10.80;99.90;;;;;;4988411;28;20144;-79
2022/03/18 12:18:06;;;;;;;30.17;13.30;;;10.70;99.90;;;;;;5007044;28;20265;-79
2022/03/18 12:20:34;;;;;;;27.95;12.73;;;10.80;99.90;;;;;;5007096;28;20018;-79
2022/03/18 12:23:09;;;;;;;27.20;12.63;;;11.00;99.90;;;;;;4989780;28;20026;-78
2022/03/18 12:25:36;;;;;;;27.85;13.25;;;11.00;99.90;;;;;;4989972;28;20046;-79
2022/03/18 12:28:03;;;;;;;28.27;15.18;;;11.10;99.90;;;;;;5007197;28;20026;-79
2022/03/18 12:30:30;;;;;;;29.20;13.02;;;11.00;99.90;;;;;;4989356;28;20080;-79
2022/03/18 12:33:01;;;;;;;28.80;12.82;;;11.30;99.90;;;;;;4989425;28;20022;-79
2022/03/18 12:35:32;;;;;;;26.42;12.95;;;11.60;99.90;;;;;;4989177;28;20087;-79
2022/03/18 12:38:16;;;;;;;26.35;13.18;;;11.80;99.90;;;;;;4989082;28;20026;-79
2022/03/18 12:40:45;;;;;;;25.63;12.85;;;11.90;99.90;;;;;;4989215;28;20034;-79
2022/03/18 12:43:15;;;;;;;30.48;13.25;;;11.70;99.90;;;;;;4989159;28;20496;-79
2022/03/18 12:45:43;;;;;;;27.95;12.20;;;11.80;99.90;;;;;;5006818;28;20048;-79
2022/03/18 12:48:14;;;;;;;23.48;11.90;;;11.70;99.90;;;;;;5006979;28;20124;-79
2022/03/18 12:50:51;;;;;;;26.23;12.65;;;11.90;99.90;;;;;;5006745;28;20037;-79
2022/03/18 12:53:23;;;;;;;27.77;15.60;;;11.80;99.90;;;;;;4989257;28;20029;-79
2022/03/18 12:55:52;;;;;;;32.20;16.02;;;11.50;99.90;;;;;;5006439;28;20500;-79
2022/03/18 12:58:19;;;;;;;32.28;15.63;;;11.40;99.90;;;;;;4989143;28;20143;-79
2022/03/18 13:00:51;;;;;;;23.83;12.35;;;11.70;99.90;;;;;;5007329;28;20018;-79
2022/03/18 13:03:25;;;;;;;30.80;15.93;;;12.40;99.90;;;;;;5007976;28;20036;-79
2022/03/18 13:05:52;;;;;;;27.23;14.00;;;12.50;99.90;;;;;;4988880;28;20029;-79
2022/03/18 13:08:22;;;;;;;19.70;12.70;;;12.00;99.90;;;;;;5006951;28;20450;-78
2022/03/18 13:11:00;;;;;;;27.38;12.52;;;11.60;99.90;;;;;;5006378;28;20061;-79
2022/03/18 13:13:27;;;;;;;27.50;13.52;;;11.60;99.90;;;;;;5007063;28;20022;-79
2022/03/18 13:15:59;;;;;;;24.05;11.13;;;11.80;99.90;;;;;;5000876;28;20071;-79